createdAt,value
2019-04-25T00:04:22.350Z,98636.64
2019-04-25T00:09:43.817Z,98641.55
2019-04-25T00:15:02.668Z,98638.64
2019-04-25T00:20:22.861Z,98657.28
2019-04-25T00:25:45.847Z,98658.20
2019-04-25T00:31:05.043Z,98644.91
2019-04-25T00:36:23.636Z,98630.58
2019-04-25T00:41:44.358Z,98630.41
2019-04-25T00:47:02.612Z,98622.45
2019-04-25T00:52:22.749Z,98605.58
2019-04-25T00:57:42.654Z,98589.48
2019-04-25T01:03:03.752Z,98581.69
2019-04-25T01:08:22.500Z,98584.36
2019-04-25T01:13:42.281Z,98589.13
2019-04-25T01:19:00.987Z,98597.08
2019-04-25T01:24:19.670Z,98609.62
2019-04-25T01:29:38.289Z,98617.59
2019-04-25T01:35:01.221Z,98625.70
2019-04-25T01:40:21.505Z,98627.94
2019-04-25T01:45:40.488Z,98638.09
2019-04-25T01:50:58.966Z,98650.32
2019-04-25T01:56:17.573Z,98662.55
2019-04-25T02:01:37.655Z,98662.89
2019-04-25T02:06:57.722Z,98668.48
2019-04-25T02:12:20.230Z,98664.17
2019-04-25T02:17:38.305Z,98668.33
2019-04-25T02:22:57.852Z,98663.36
2019-04-25T02:28:16.511Z,98660.17
2019-04-25T02:33:35.149Z,98668.49
2019-04-25T02:38:57.547Z,98674.53
2019-04-25T02:44:14.579Z,98678.59
2019-04-25T02:49:39.363Z,98671.68
2019-04-25T02:54:58.432Z,98691.55
2019-04-25T03:00:27.297Z,98676.44
2019-04-25T03:05:47.779Z,98689.28
2019-04-25T03:11:08.090Z,98691.76
2019-04-25T03:16:26.921Z,98701.01
2019-04-25T03:21:47.276Z,98696.66
2019-04-25T03:27:06.190Z,98694.39
2019-04-25T03:32:28.476Z,98691.55
2019-04-25T03:37:46.013Z,98687.72
2019-04-25T03:43:05.109Z,98690.44
2019-04-25T03:48:25.232Z,98697.34
2019-04-25T03:53:43.865Z,98703.00
2019-04-25T03:59:04.835Z,98700.28
2019-04-25T04:04:23.720Z,98712.70
2019-04-25T04:09:43.558Z,98708.66
2019-04-25T04:15:04.679Z,98705.13
2019-04-25T04:20:24.208Z,98706.30
2019-04-25T04:25:43.352Z,98701.00
2019-04-25T04:31:03.591Z,98701.14
2019-04-25T04:36:23.694Z,98713.78
2019-04-25T04:41:43.629Z,98715.72
2019-04-25T04:47:03.995Z,98706.91
2019-04-25T04:52:25.190Z,98709.24
2019-04-25T04:57:44.725Z,98722.64
2019-04-25T05:03:07.945Z,98728.05
2019-04-25T05:08:28.206Z,98733.11
2019-04-25T05:13:46.827Z,98738.72
2019-04-25T05:19:05.467Z,98744.42
2019-04-25T05:24:25.012Z,98763.59
2019-04-25T05:29:44.791Z,98770.91
2019-04-25T05:35:03.826Z,98769.34
2019-04-25T05:40:24.122Z,98759.33
2019-04-25T05:45:44.004Z,98757.17
2019-04-25T05:51:03.930Z,98756.73
2019-04-25T05:56:25.816Z,98756.02
2019-04-25T06:01:43.439Z,98767.81
2019-04-25T06:07:05.706Z,98768.01
2019-04-25T06:12:26.512Z,98772.10
2019-04-25T06:17:46.772Z,98782.75
2019-04-25T06:23:07.031Z,98797.38
2019-04-25T06:28:28.226Z,98797.91
2019-04-25T06:33:46.886Z,98799.84
2019-04-25T06:39:07.606Z,98802.44
2019-04-25T06:44:34.564Z,98813.24
2019-04-25T06:49:53.380Z,98813.39
2019-04-25T06:55:12.001Z,98801.97
2019-04-25T07:00:34.254Z,98791.52
2019-04-25T07:05:51.148Z,98796.95
2019-04-25T07:11:09.683Z,98805.11
2019-04-25T07:16:28.300Z,98811.91
2019-04-25T07:21:46.952Z,98810.64
2019-04-25T07:27:19.593Z,98832.07
2019-04-25T07:32:43.969Z,98837.05
2019-04-25T07:38:04.009Z,98850.89
2019-04-25T07:43:23.348Z,98850.16
2019-04-25T07:48:43.644Z,98854.44
2019-04-25T07:54:02.464Z,98855.72
2019-04-25T07:59:21.367Z,98845.77
2019-04-25T08:04:40.010Z,98840.80
2019-04-25T08:10:04.059Z,98842.13
2019-04-25T08:15:40.725Z,98857.37
2019-04-25T08:21:00.268Z,98853.18
2019-04-25T08:26:18.903Z,98861.64
2019-04-25T08:31:37.761Z,98865.19
2019-04-25T08:36:56.443Z,98878.66
2019-04-25T08:42:14.998Z,98873.42
2019-04-25T08:47:35.778Z,98867.89
2019-04-25T08:52:54.410Z,98858.25
2019-04-25T08:58:35.286Z,98861.88
2019-04-25T09:04:13.226Z,98878.82
2019-04-25T09:09:32.644Z,98872.95
2019-04-25T09:14:52.276Z,98865.16
2019-04-25T09:20:13.929Z,98875.91
2019-04-25T09:25:34.547Z,98877.36
2019-04-25T09:30:54.029Z,98889.47
2019-04-25T09:36:14.161Z,98903.00
2019-04-25T09:41:33.577Z,98883.50
2019-04-25T09:46:53.697Z,98881.66
2019-04-25T09:52:13.980Z,98879.58
2019-04-25T09:57:34.170Z,99024.19
2019-04-25T10:02:56.122Z,98889.27
2019-04-25T10:08:14.940Z,98866.22
2019-04-25T10:13:40.045Z,98880.59
2019-04-25T10:18:57.785Z,98869.28
2019-04-25T10:24:16.933Z,98878.14
2019-04-25T10:29:44.402Z,98874.80
2019-04-25T10:34:58.486Z,98869.38
2019-04-25T10:40:18.588Z,98877.98
2019-04-25T10:45:39.792Z,98883.94
2019-04-25T10:50:59.611Z,98878.47
2019-04-25T10:56:22.047Z,98882.22
2019-04-25T11:01:41.214Z,98874.45
2019-04-25T11:06:59.938Z,98869.41
2019-04-25T11:12:19.027Z,98871.35
2019-04-25T11:17:37.571Z,98873.52
2019-04-25T11:22:56.628Z,98872.07
2019-04-25T11:28:15.266Z,98867.88
2019-04-25T11:33:35.356Z,98883.88
2019-04-25T11:39:13.479Z,98864.64
2019-04-25T11:44:33.295Z,98876.17
2019-04-25T11:49:54.184Z,98870.70
2019-04-25T11:55:14.319Z,98871.30
2019-04-25T12:00:34.239Z,98859.84
2019-04-25T12:05:53.155Z,98849.70
2019-04-25T12:11:11.799Z,98827.73
2019-04-25T12:16:30.753Z,98814.09
2019-04-25T12:21:50.253Z,98805.55
2019-04-25T12:27:08.893Z,98797.31
2019-04-25T12:32:27.447Z,98779.80
2019-04-25T12:37:46.047Z,98780.31
2019-04-25T12:43:05.223Z,98771.78
2019-04-25T12:48:23.955Z,98774.28
2019-04-25T12:53:43.803Z,98779.63
2019-04-25T12:59:02.632Z,98790.96
2019-04-25T13:04:21.187Z,98800.20
2019-04-25T13:09:39.808Z,98791.47
2019-04-25T13:14:58.357Z,98786.73
2019-04-25T13:20:17.044Z,98788.41
2019-04-25T13:25:35.512Z,98790.84
2019-04-25T13:31:04.066Z,98793.79
2019-04-25T13:36:20.352Z,98794.95
2019-04-25T13:41:38.979Z,98797.05
2019-04-25T13:46:57.526Z,98809.23
2019-04-25T13:52:17.733Z,98799.35
2019-04-25T13:57:36.368Z,98793.72
2019-04-25T14:02:55.059Z,98791.66
2019-04-25T14:08:14.905Z,98781.63
2019-04-25T14:13:33.557Z,98769.95
2019-04-25T14:18:53.665Z,98775.48
2019-04-25T14:24:20.273Z,98762.28
2019-04-25T14:29:34.817Z,98754.87
2019-04-25T14:34:54.456Z,98752.28
2019-04-25T14:40:14.042Z,98753.27
2019-04-25T14:45:44.006Z,98744.27
2019-04-25T14:50:52.907Z,98752.04
2019-04-25T14:56:23.686Z,98748.39
2019-04-25T15:01:45.002Z,98753.05
2019-04-25T15:07:03.156Z,98757.48
2019-04-25T15:12:22.459Z,98755.89
2019-04-25T15:17:46.413Z,98749.05
2019-04-25T15:23:02.403Z,98748.04
2019-04-25T15:28:20.848Z,98762.39
2019-04-25T15:33:39.843Z,98761.84
2019-04-25T15:39:16.435Z,98761.33
2019-04-25T15:44:36.639Z,98754.23
2019-04-25T15:49:55.190Z,98748.82
2019-04-25T15:55:13.891Z,98750.59
2019-04-25T16:00:34.999Z,98737.25
2019-04-25T16:05:53.704Z,98727.13
2019-04-25T16:11:12.860Z,98736.03
2019-04-25T16:16:31.736Z,98740.50
2019-04-25T16:21:56.106Z,98741.11
2019-04-25T16:27:15.692Z,98743.17
2019-04-25T16:32:34.633Z,98743.59
2019-04-25T16:37:53.292Z,98743.73
2019-04-25T16:43:13.563Z,98753.69
2019-04-25T16:48:32.215Z,98743.50
2019-04-25T16:53:50.762Z,98752.83
2019-04-25T16:59:09.721Z,98754.88
2019-04-25T17:04:29.774Z,98752.86
2019-04-25T17:09:48.525Z,98756.27
2019-04-25T17:15:09.301Z,98769.38
2019-04-25T17:20:29.901Z,98776.23
2019-04-25T17:25:53.150Z,98793.87
2019-04-25T17:31:28.424Z,98820.36
2019-04-25T17:36:48.601Z,98834.37
2019-04-25T17:42:07.341Z,98831.62
2019-04-25T17:47:26.050Z,98840.39
2019-04-25T17:52:44.633Z,98840.98
2019-04-25T17:58:03.303Z,98849.36
2019-04-25T18:03:22.798Z,98839.48
2019-04-25T18:08:42.917Z,98854.78
2019-04-25T18:14:01.473Z,98844.83
2019-04-25T18:19:21.744Z,98838.66
2019-04-25T18:24:58.209Z,98846.66
2019-04-25T18:30:16.916Z,98858.67
2019-04-25T18:35:39.291Z,98873.86
2019-04-25T18:41:12.836Z,98882.91
2019-04-25T18:46:38.958Z,98887.28
2019-04-25T18:51:59.243Z,98917.40
2019-04-25T18:57:22.255Z,98928.23
2019-04-25T19:02:46.051Z,98940.97
2019-04-25T19:08:05.204Z,98957.95
2019-04-25T19:13:23.792Z,98969.08
2019-04-25T19:18:44.515Z,98980.17
2019-04-25T19:24:02.899Z,98984.36
2019-04-25T19:29:24.447Z,98982.65
2019-04-25T19:34:43.001Z,99009.52
2019-04-25T19:40:20.838Z,99011.26
2019-04-25T19:45:40.938Z,99006.19
2019-04-25T19:50:59.651Z,99019.75
2019-04-25T19:56:18.275Z,99036.62
2019-04-25T20:01:37.062Z,99039.84
2019-04-25T20:07:12.256Z,99045.13
2019-04-25T20:12:33.696Z,99014.84
2019-04-25T20:17:52.344Z,99022.19
2019-04-25T20:23:11.343Z,99041.06
2019-04-25T20:28:29.958Z,99030.94
2019-04-25T20:34:02.361Z,99021.16
2019-04-25T20:39:09.040Z,99034.12
2019-04-25T20:44:27.652Z,99028.33
2019-04-25T20:49:46.731Z,99026.06
2019-04-25T20:55:07.318Z,99032.45
2019-04-25T21:00:40.487Z,99027.86
2019-04-25T21:06:15.755Z,99037.59
2019-04-25T21:11:34.381Z,99049.08
2019-04-25T21:16:58.549Z,99048.27
2019-04-25T21:22:17.308Z,99032.09
2019-04-25T21:27:36.037Z,99016.92
2019-04-25T21:32:55.611Z,99012.08
2019-04-25T21:38:15.405Z,98998.89
2019-04-25T21:43:35.716Z,99006.48
2019-04-25T21:48:54.771Z,99015.83
2019-04-25T21:54:13.299Z,99018.39
2019-04-25T21:59:32.220Z,98998.22
2019-04-25T22:04:50.950Z,99004.75
2019-04-25T22:10:10.217Z,99036.66
2019-04-25T22:15:28.758Z,99051.89
2019-04-25T22:20:47.551Z,99064.09
2019-04-25T22:26:07.040Z,99074.47
2019-04-25T22:31:27.522Z,99074.31
2019-04-25T22:36:46.158Z,99057.27
2019-04-25T22:42:05.840Z,99051.48
2019-04-25T22:47:24.534Z,99068.59
2019-04-25T22:52:43.127Z,99040.19
2019-04-25T22:58:02.772Z,99030.97
2019-04-25T23:03:32.656Z,99043.10
2019-04-25T23:08:51.221Z,99038.00
2019-04-25T23:14:09.760Z,99033.19
2019-04-25T23:19:28.384Z,99018.37
2019-04-25T23:24:48.833Z,99023.42
2019-04-25T23:30:10.112Z,99009.79
2019-04-25T23:35:29.818Z,98990.30
2019-04-25T23:40:49.184Z,98988.00
2019-04-25T23:46:08.261Z,98971.72
2019-04-25T23:51:27.211Z,98980.56
2019-04-25T23:56:45.990Z,98985.56
